Darstellungsparameter: Aktuell verwendete Einstellungen:
Skalierung der Graphiken ... ?
xyx+y,   Skalierungsfaktor:      Skalierung: Modus: x, Faktor: 1
Darstellungszeitraum ... ?
Vom - - bis: - -   Zeitraum: 02.06.2008 - 01.06.2009
Min/Max/Avg-Anzeige ... ?
Zeige MMA aktuell
Zeige MMA Monat
Zeige MMA alles
Zeige --A aktuell
Zeige --A Monat
Zeige --A alles
Keine MMA-Anzeige
MMA:
Keine MMA-Graphiken
MMA-Basis: 02.06.2008 - 01.06.2009
Quicknavigation für Darstellung... ?
Tage:      1T, 2T, 3T, 5T -1T -2T -3T -5T +1T +2T +3T +5T
Wochen: 1W, 2W, 3W -1W -2W -3W +1W +2W +3W
Monate: 1M, 3M, 6M -1M -3M -6M +1M +3M +6M
Jahre:    1J, 3J, 5J, 10J -1J -3J -5J -10J +1J +3J +5J +10J
Nutze für die Darstellung ... ?
Originaldaten oder ...
Mittelwerte Minima Maxima auf...
Stundenbasis Tagesbasis Wochenbasis
Monatsbasis Jahresbasis      Datenbasis: Mittelwerte auf Tagesbasis
Darstellen als:
Statistik (Auto) Statistik J:M      Darstellung:
Zur Graphik,    zurück zur Übersicht aller Sensoren.
 
Tabellarische Datenbersicht: ?
 
Sensor: Nr:Datum:Temp:Abs-Feuchte:Windchill:Wind:
Aussen-T/F 1 02-06-2008 00:00:00 23.66833 C 12.72 g/m*3 23.67 C 0 km/h
2 03-06-2008 00:00:00 21.2825 C 11.09 g/m*3 21.28 C 0 km/h
3 04-06-2008 00:00:00 19.19833 C 11.48 g/m*3 19.2 C 0 km/h
4 05-06-2008 00:00:00 20.67731 C 12.57 g/m*3 20.68 C 0 km/h
5 06-06-2008 00:00:00 21.07333 C 10.91 g/m*3 21.07 C 0 km/h
6 07-06-2008 00:00:00 19.84417 C 10.51 g/m*3 19.84 C 0 km/h
7 08-06-2008 00:00:00 20.63167 C 10.52 g/m*3 20.63 C 0 km/h
8 09-06-2008 00:00:00 22.875 C 10.01 g/m*3 22.88 C 0 km/h
9 10-06-2008 00:00:00 23.51583 C 9.23 g/m*3 23.52 C 0 km/h
10 11-06-2008 00:00:00 18.4725 C 7.23 g/m*3 18.47 C 0 km/h
11 12-06-2008 00:00:00 12.7425 C 7.69 g/m*3 12.74 C 0 km/h
12 13-06-2008 00:00:00 13.67167 C 7.09 g/m*3 13.67 C 0 km/h
13 14-06-2008 00:00:00 13.75917 C 7.2 g/m*3 13.76 C 0 km/h
14 15-06-2008 00:00:00 13.75333 C 8.27 g/m*3 13.75 C 0 km/h
15 16-06-2008 00:00:00 16.2275 C 7.7 g/m*3 16.23 C 0 km/h
16 17-06-2008 00:00:00 17.34333 C 7.29 g/m*3 17.34 C 0 km/h
17 18-06-2008 00:00:00 20.30583 C 7.89 g/m*3 20.31 C 0 km/h
18 19-06-2008 00:00:00 20.67417 C 8.05 g/m*3 20.67 C 0 km/h
19 20-06-2008 00:00:00 18.32 C 8.63 g/m*3 18.32 C 0 km/h
20 21-06-2008 00:00:00 23.24706 C 9.11 g/m*3 23.25 C 0 km/h
21 22-06-2008 00:00:00 24.30833 C 11.76 g/m*3 24.31 C 0 km/h
22 23-06-2008 00:00:00 22.40417 C 8.41 g/m*3 22.4 C 0 km/h
23 24-06-2008 00:00:00 23.6325 C 8.33 g/m*3 23.63 C 0 km/h
24 25-06-2008 00:00:00 22.66833 C 12.11 g/m*3 22.67 C 0 km/h
25 26-06-2008 00:00:00 20.39833 C 8.44 g/m*3 20.4 C 0 km/h
Sensor: Nr:Datum:Temp:Abs-Feuchte:Windchill:Wind:
Aussen-T/F 26 27-06-2008 00:00:00 18.72167 C 8.67 g/m*3 18.72 C 0 km/h
27 28-06-2008 00:00:00 21.21 C 9.93 g/m*3 21.21 C 0 km/h
28 29-06-2008 00:00:00 22.68667 C 9.85 g/m*3 22.69 C 0 km/h
29 30-06-2008 00:00:00 22.95083 C 8.73 g/m*3 22.95 C 0 km/h
30 01-07-2008 00:00:00 24.35583 C 9.2 g/m*3 24.36 C 0 km/h
31 02-07-2008 00:00:00 26.47583 C 10.39 g/m*3 26.48 C 0 km/h
32 03-07-2008 00:00:00 20.18992 C 12.77 g/m*3 20.19 C 0 km/h
33 04-07-2008 00:00:00 19.38083 C 9.22 g/m*3 19.38 C 0 km/h
34 05-07-2008 00:00:00 21.0575 C 8.87 g/m*3 21.06 C 0 km/h
35 06-07-2008 00:00:00 21.2225 C 8.99 g/m*3 21.22 C 0 km/h
36 07-07-2008 00:00:00 18.24917 C 8.13 g/m*3 18.25 C 0 km/h
37 08-07-2008 00:00:00 17.2125 C 8.69 g/m*3 17.21 C 0 km/h
38 09-07-2008 00:00:00 17.0525 C 8.83 g/m*3 17.05 C 0 km/h
39 10-07-2008 00:00:00 22.32833 C 10.77 g/m*3 22.33 C 0 km/h
40 11-07-2008 00:00:00 20.48167 C 11.17 g/m*3 20.48 C 0 km/h
41 12-07-2008 00:00:00 17.645 C 9.92 g/m*3 17.65 C 0 km/h
42 13-07-2008 00:00:00 17.8375 C 8.02 g/m*3 17.84 C 0 km/h
43 14-07-2008 00:00:00 18.38 C 7.76 g/m*3 18.38 C 0 km/h
44 15-07-2008 00:00:00 19.61978 C 8.34 g/m*3 19.62 C 0 km/h
45 16-07-2008 00:00:00 20.38298 C 10.82 g/m*3 20.38 C 0 km/h
46 17-07-2008 00:00:00 17.22917 C 8.94 g/m*3 17.23 C 0 km/h
47 18-07-2008 00:00:00 16.58125 C 9.74 g/m*3 16.58 C 0 km/h
48 19-07-2008 00:00:00 19.61667 C 9.94 g/m*3 19.62 C 0 km/h
49 20-07-2008 00:00:00 15.48542 C 9.13 g/m*3 15.49 C 0 km/h
50 21-07-2008 00:00:00 12.62917 C 8.41 g/m*3 12.63 C 0 km/h
Sensor: Nr:Datum:Temp:Abs-Feuchte:Windchill:Wind:
Aussen-T/F 51 22-07-2008 00:00:00 14.56042 C 9.4 g/m*3 14.56 C 0 km/h
52 23-07-2008 00:00:00 18.94375 C 9.57 g/m*3 18.94 C 0 km/h
53 24-07-2008 00:00:00 22.13958 C 9.31 g/m*3 22.14 C 0 km/h
54 25-07-2008 00:00:00 24.55625 C 9.56 g/m*3 24.56 C 0 km/h
55 26-07-2008 00:00:00 23.54792 C 12.42 g/m*3 23.55 C 0 km/h
56 27-07-2008 00:00:00 23.20625 C 13.92 g/m*3 23.21 C 0 km/h
57 28-07-2008 00:00:00 25.10833 C 12.45 g/m*3 25.11 C 0 km/h
58 29-07-2008 00:00:00 24.49792 C 12.1 g/m*3 24.5 C 0 km/h
59 30-07-2008 00:00:00 23.67292 C 12.74 g/m*3 23.67 C 0 km/h
60 31-07-2008 00:00:00 24.69792 C 13.38 g/m*3 24.7 C 0 km/h
61 01-08-2008 00:00:00 24.97917 C 10.83 g/m*3 24.98 C 0 km/h
62 02-08-2008 00:00:00 21.29792 C 9.43 g/m*3 21.3 C 0 km/h
63 03-08-2008 00:00:00 23.42561 C 10.97 g/m*3 23.43 C 0 km/h
64 04-08-2008 00:00:00 21.85083 C 10.01 g/m*3 21.85 C 0 km/h
65 05-08-2008 00:00:00 20.3125 C 8.72 g/m*3 20.31 C 0 km/h
66 06-08-2008 00:00:00 24.05417 C 10.21 g/m*3 24.05 C 0 km/h
67 07-08-2008 00:00:00 24.29583 C 11.12 g/m*3 24.3 C 0 km/h
68 08-08-2008 00:00:00 18.50948 C 11.78 g/m*3 18.51 C 0 km/h
69 09-08-2008 00:00:00 19.32 C 9.06 g/m*3 19.32 C 0 km/h
70 10-08-2008 00:00:00 20.1 C 9.41 g/m*3 20.1 C 0 km/h
71 11-08-2008 00:00:00 20.59748 C 9.44 g/m*3 20.6 C 0 km/h
72 12-08-2008 00:00:00 18.91833 C 12.54 g/m*3 18.92 C 0 km/h
73 13-08-2008 00:00:00 18.3525 C 8.74 g/m*3 18.35 C 0 km/h
74 14-08-2008 00:00:00 19.14917 C 7.79 g/m*3 19.15 C 0 km/h
75 15-08-2008 00:00:00 18.3625 C 8.19 g/m*3 18.36 C 0 km/h
Sensor: Nr:Datum:Temp:Abs-Feuchte:Windchill:Wind:
Aussen-T/F 76 16-08-2008 00:00:00 18.89 C 8.44 g/m*3 18.89 C 0 km/h
77 17-08-2008 00:00:00 19.10252 C 8.4 g/m*3 19.1 C 0 km/h
78 18-08-2008 00:00:00 21.21 C 10.7 g/m*3 21.21 C 0 km/h
79 19-08-2008 00:00:00 20.7925 C 9.67 g/m*3 20.79 C 0 km/h
80 20-08-2008 00:00:00 18.82 C 9.37 g/m*3 18.82 C 0 km/h
81 21-08-2008 00:00:00 19.6375 C 8.99 g/m*3 19.64 C 0 km/h
82 22-08-2008 00:00:00 18.45333 C 11.1 g/m*3 18.45 C 0 km/h
83 23-08-2008 00:00:00 14.95083 C 9.15 g/m*3 14.95 C 0 km/h
84 24-08-2008 00:00:00 16.59333 C 8.67 g/m*3 16.59 C 0 km/h
85 25-08-2008 00:00:00 17.43583 C 10.93 g/m*3 17.44 C 0 km/h
86 26-08-2008 00:00:00 19.2725 C 10.13 g/m*3 19.27 C 0 km/h
87 27-08-2008 00:00:00 19.89833 C 10.62 g/m*3 19.9 C 0 km/h
88 28-08-2008 00:00:00 20.35417 C 9.37 g/m*3 20.35 C 0 km/h
89 29-08-2008 00:00:00 20.84454 C 9.74 g/m*3 20.84 C 0 km/h
90 30-08-2008 00:00:00 21.35167 C 10.94 g/m*3 21.35 C 0 km/h
91 31-08-2008 00:00:00 22.25917 C 10.49 g/m*3 22.26 C 0 km/h
92 01-09-2008 00:00:00 20.93917 C 10.36 g/m*3 20.94 C 0 km/h
93 02-09-2008 00:00:00 19.11333 C 9.31 g/m*3 19.11 C 0 km/h
94 03-09-2008 00:00:00 15.21083 C 10.42 g/m*3 15.21 C 0 km/h
95 04-09-2008 00:00:00 13.7025 C 7.94 g/m*3 13.7 C 0 km/h
96 05-09-2008 00:00:00 16.9775 C 10.5 g/m*3 16.98 C 0 km/h
97 06-09-2008 00:00:00 17.5625 C 11.38 g/m*3 17.56 C 0 km/h
98 07-09-2008 00:00:00 16.83583 C 9.34 g/m*3 16.84 C 0 km/h
99 08-09-2008 00:00:00 17.9741 C 8.43 g/m*3 17.97 C 0 km/h
100 09-09-2008 00:00:00 18.12014 C 9.04 g/m*3 18.12 C 0 km/h
Sensor: Nr:Datum:Temp:Abs-Feuchte:Windchill:Wind:
Aussen-T/F 101 10-09-2008 00:00:00 21.10243 C 10.72 g/m*3 21.1 C 0 km/h
102 11-09-2008 00:00:00 19.94479 C 12.52 g/m*3 19.94 C 0 km/h
103 12-09-2008 00:00:00 16.69236 C 12.91 g/m*3 16.69 C 0 km/h
104 13-09-2008 00:00:00 12.63937 C 10.07 g/m*3 12.64 C 0 km/h
105 14-09-2008 00:00:00 11.66215 C 6.19 g/m*3 11.66 C 0 km/h
106 15-09-2008 00:00:00 10.27153 C 7.08 g/m*3 10.27 C 0 km/h
107 16-09-2008 00:00:00 11.32014 C 7.11 g/m*3 11.32 C 0 km/h
108 17-09-2008 00:00:00 11.34948 C 5.77 g/m*3 11.35 C 0 km/h
109 18-09-2008 00:00:00 10.63264 C 5.3 g/m*3 10.63 C 0 km/h
110 19-09-2008 00:00:00 10.48333 C 6.14 g/m*3 10.48 C 0 km/h
111 20-09-2008 00:00:00 11.00556 C 6.26 g/m*3 11.01 C 0 km/h
112 21-09-2008 00:00:00 11.67222 C 6.89 g/m*3 11.67 C 0 km/h
113 22-09-2008 00:00:00 12.57108 C 7.54 g/m*3 12.57 C 0 km/h
114 23-09-2008 00:00:00 12.21111 C 8.35 g/m*3 12.21 C 0 km/h
115 24-09-2008 00:00:00 13.30799 C 9.32 g/m*3 13.31 C 0 km/h
116 25-09-2008 00:00:00 12.56736 C 7.77 g/m*3 12.57 C 0 km/h
117 26-09-2008 00:00:00 12.00521 C 7.09 g/m*3 12.01 C 0 km/h
118 27-09-2008 00:00:00 11.93693 C 7.15 g/m*3 11.94 C 0 km/h
119 28-09-2008 00:00:00 11.96493 C 7.21 g/m*3 11.96 C 0 km/h
120 29-09-2008 00:00:00 11.47396 C 7.33 g/m*3 11.47 C 0 km/h
121 30-09-2008 00:00:00 10.38611 C 7.67 g/m*3 10.39 C 0 km/h
122 01-10-2008 00:00:00 13.07222 C 8.43 g/m*3 13.07 C 0 km/h
123 02-10-2008 00:00:00 10.70244 C 6.41 g/m*3 10.7 C 0 km/h
124 03-10-2008 00:00:00 8.94063 C 6.04 g/m*3 8.94 C 0 km/h
125 04-10-2008 00:00:00 9.76632 C 5.66 g/m*3 9.77 C 0 km/h
Sensor: Nr:Datum:Temp:Abs-Feuchte:Windchill:Wind:
Aussen-T/F 126 05-10-2008 00:00:00 11.69062 C 6.1 g/m*3 11.69 C 0 km/h
127 06-10-2008 00:00:00 14.79306 C 10.16 g/m*3 14.79 C 0 km/h
128 07-10-2008 00:00:00 15.17875 C 10.24 g/m*3 15.18 C 0 km/h
129 08-10-2008 00:00:00 13.26389 C 10.6 g/m*3 13.26 C 0 km/h
130 09-10-2008 00:00:00 13.20937 C 8.82 g/m*3 13.21 C 0 km/h
131 10-10-2008 00:00:00 13.01806 C 8.66 g/m*3 13.02 C 0 km/h
132 11-10-2008 00:00:00 13.2125 C 9 g/m*3 13.21 C 0 km/h
133 12-10-2008 00:00:00 15.40729 C 9.68 g/m*3 15.41 C 0 km/h
134 13-10-2008 00:00:00 14.40976 C 9.47 g/m*3 14.41 C 0 km/h
135 14-10-2008 00:00:00 15.63438 C 9.35 g/m*3 15.63 C 0 km/h
136 15-10-2008 00:00:00 13.57361 C 8.88 g/m*3 13.57 C 0 km/h
137 16-10-2008 00:00:00 11.59444 C 8.43 g/m*3 11.59 C 0 km/h
138 17-10-2008 00:00:00 8.00313 C 6.15 g/m*3 8 C 0 km/h
139 18-10-2008 00:00:00 7.10488 C 5.92 g/m*3 7.1 C 0 km/h
140 19-10-2008 00:00:00 8.10521 C 6.25 g/m*3 8.11 C 0 km/h
141 20-10-2008 00:00:00 9.83646 C 7.21 g/m*3 9.84 C 0 km/h
142 21-10-2008 00:00:00 13.12986 C 9.32 g/m*3 13.13 C 0 km/h
143 22-10-2008 00:00:00 9.36528 C 7.49 g/m*3 9.37 C 0 km/h
144 23-10-2008 00:00:00 9.2115 C 6.5 g/m*3 9.21 C 0 km/h
145 24-10-2008 00:00:00 7.4434 C 6.07 g/m*3 7.44 C 0 km/h
146 25-10-2008 00:00:00 10.48151 C 7.39 g/m*3 10.48 C 0 km/h
147 26-10-2008 00:00:00 10.725 C 6.55 g/m*3 10.73 C 0 km/h
148 27-10-2008 00:00:00 10.21724 C 7.98 g/m*3 10.22 C 0 km/h
149 28-10-2008 00:00:00 6.92456 C 6.29 g/m*3 6.92 C 0 km/h
150 29-10-2008 00:00:00 5.45 C 5.63 g/m*3 5.45 C 0 km/h
Sensor: Nr:Datum:Temp:Abs-Feuchte:Windchill:Wind:
Aussen-T/F 151 30-10-2008 00:00:00 4.78947 C 6 g/m*3 4.79 C 0 km/h
152 31-10-2008 00:00:00 5.97414 C 6.34 g/m*3 5.97 C 0 km/h
153 01-11-2008 00:00:00 7.97414 C 7.15 g/m*3 7.97 C 0 km/h
154 02-11-2008 00:00:00 9.98772 C 7.86 g/m*3 9.99 C 0 km/h
155 03-11-2008 00:00:00 9.82241 C 7.83 g/m*3 9.82 C 0 km/h
156 04-11-2008 00:00:00 9.00351 C 7.82 g/m*3 9 C 0 km/h
157 05-11-2008 00:00:00 9.79828 C 7.68 g/m*3 9.8 C 0 km/h
158 06-11-2008 00:00:00 10.54483 C 7.37 g/m*3 10.54 C 0 km/h
159 07-11-2008 00:00:00 10.79123 C 7.22 g/m*3 10.79 C 0 km/h
160 08-11-2008 00:00:00 8.24828 C 6.77 g/m*3 8.25 C 0 km/h
161 09-11-2008 00:00:00 8.89583 C 7.31 g/m*3 8.9 C 0 km/h
162 10-11-2008 00:00:00 13.98833 C 7.91 g/m*3 13.99 C 0 km/h
163 11-11-2008 00:00:00 12.73917 C 6.46 g/m*3 12.74 C 0 km/h
164 12-11-2008 00:00:00 8.5175 C 6.56 g/m*3 8.52 C 0 km/h
165 13-11-2008 00:00:00 6.40667 C 6.06 g/m*3 6.41 C 0 km/h
166 14-11-2008 00:00:00 5.60833 C 5.47 g/m*3 5.61 C 0 km/h
167 15-11-2008 00:00:00 9.82083 C 7.04 g/m*3 9.82 C 0 km/h
168 16-11-2008 00:00:00 9.9375 C 7.83 g/m*3 9.94 C 0 km/h
169 17-11-2008 00:00:00 4.03167 C 5.46 g/m*3 4.03 C 0 km/h
170 18-11-2008 00:00:00 4.76417 C 5.59 g/m*3 4.76 C 0 km/h
171 19-11-2008 00:00:00 7.7775 C 6.09 g/m*3 7.78 C 0 km/h
172 20-11-2008 00:00:00 9.54 C 6.58 g/m*3 9.54 C 0 km/h
173 21-11-2008 00:00:00 5.21083 C 5.22 g/m*3 5.21 C 0 km/h
174 22-11-2008 00:00:00 1.08571 C 3.81 g/m*3 1.09 C 0 km/h
175 23-11-2008 00:00:00 0.81333 C 4.11 g/m*3 0.81 C 0 km/h
Sensor: Nr:Datum:Temp:Abs-Feuchte:Windchill:Wind:
Aussen-T/F 176 24-11-2008 00:00:00 1.92667 C 4.67 g/m*3 1.93 C 0 km/h
177 25-11-2008 00:00:00 0.79667 C 4.51 g/m*3 0.8 C 0 km/h
178 26-11-2008 00:00:00 2.38333 C 4.91 g/m*3 2.38 C 0 km/h
179 27-11-2008 00:00:00 3.435 C 4.58 g/m*3 3.44 C 0 km/h
180 28-11-2008 00:00:00 0.47667 C 3.78 g/m*3 0.48 C 0 km/h
181 29-11-2008 00:00:00 0.98 C 4.13 g/m*3 0.98 C 0 km/h
182 30-11-2008 00:00:00 1.12 C 4.72 g/m*3 1.12 C 0 km/h
183 01-12-2008 00:00:00 0.30417 C 4.54 g/m*3 0.3 C 0 km/h
184 02-12-2008 00:00:00 2.80917 C 4.97 g/m*3 2.81 C 0 km/h
185 03-12-2008 00:00:00 1.785 C 4.91 g/m*3 1.79 C 0 km/h
186 04-12-2008 00:00:00 1.92353 C 5.05 g/m*3 1.92 C 0 km/h
187 05-12-2008 00:00:00 5.36 C 6.01 g/m*3 5.36 C 0 km/h
188 06-12-2008 00:00:00 4.73 C 5.89 g/m*3 4.73 C 0 km/h
189 07-12-2008 00:00:00 3.85333 C 5.78 g/m*3 3.85 C 0 km/h
190 08-12-2008 00:00:00 0.26917 C 4.58 g/m*3 0.27 C 0 km/h
191 09-12-2008 00:00:00 0.56667 C 4.36 g/m*3 0.57 C 0 km/h
192 10-12-2008 00:00:00 1.97667 C 5.17 g/m*3 1.98 C 0 km/h
193 11-12-2008 00:00:00 1.4775 C 4.54 g/m*3 1.48 C 0 km/h
194 12-12-2008 00:00:00 -0.23583 C 3.8 g/m*3 -0.24 C 0 km/h
195 13-12-2008 00:00:00 -0.26167 C 3.56 g/m*3 -0.26 C 0 km/h
196 14-12-2008 00:00:00 0.28083 C 4.24 g/m*3 0.28 C 0 km/h
197 15-12-2008 00:00:00 -0.1075 C 4.53 g/m*3 -0.11 C 0 km/h
198 16-12-2008 00:00:00 0.42521 C 4.59 g/m*3 0.43 C 0 km/h
199 17-12-2008 00:00:00 -0.0375 C 4.31 g/m*3 -0.04 C 0 km/h
200 18-12-2008 00:00:00 2.15083 C 5.01 g/m*3 2.15 C 0 km/h
Sensor: Nr:Datum:Temp:Abs-Feuchte:Windchill:Wind:
Aussen-T/F 201 19-12-2008 00:00:00 4.22333 C 5.23 g/m*3 4.22 C 0 km/h
202 20-12-2008 00:00:00 6.45667 C 6.48 g/m*3 6.46 C 0 km/h
203 21-12-2008 00:00:00 7.94917 C 6.81 g/m*3 7.95 C 0 km/h
204 22-12-2008 00:00:00 8.47167 C 6.7 g/m*3 8.47 C 0 km/h
205 23-12-2008 00:00:00 6.21417 C 5.86 g/m*3 6.21 C 0 km/h
206 24-12-2008 00:00:00 4.55833 C 5.62 g/m*3 4.56 C 0 km/h
207 25-12-2008 00:00:00 4.40252 C 4.56 g/m*3 4.4 C 0 km/h
208 26-12-2008 00:00:00 -1.1875 C 2.6 g/m*3 -1.19 C 0 km/h
209 27-12-2008 00:00:00 -1.85667 C 2.56 g/m*3 -1.86 C 0 km/h
210 28-12-2008 00:00:00 -3.02917 C 2.53 g/m*3 -3.03 C 0 km/h
211 29-12-2008 00:00:00 -5.49833 C 2.6 g/m*3 -5.5 C 0 km/h
212 30-12-2008 00:00:00 -6.21833 C 2.53 g/m*3 -6.22 C 0 km/h
213 31-12-2008 00:00:00 -4.32583 C 2.92 g/m*3 -4.33 C 0 km/h
214 01-01-2009 00:00:00 -3.46417 C 2.96 g/m*3 -3.46 C 0 km/h
215 02-01-2009 00:00:00 -2.03917 C 3.39 g/m*3 -2.04 C 0 km/h
216 03-01-2009 00:00:00 -3.57 C 2.96 g/m*3 -3.57 C 0 km/h
217 04-01-2009 00:00:00 -1.06833 C 2.96 g/m*3 -1.07 C 0 km/h
218 05-01-2009 00:00:00 -1.23866 C 3.28 g/m*3 -1.24 C 0 km/h
219 06-01-2009 00:00:00 -6.97 C 1.26 g/m*3 -6.97 C 0 km/h
220 07-01-2009 00:00:00 -10.99167 C 1.39 g/m*3 -10.99 C 0 km/h
221 08-01-2009 00:00:00 -6.02083 C 2.27 g/m*3 -6.02 C 0 km/h
222 09-01-2009 00:00:00 -11.165 C 1.54 g/m*3 -11.17 C 0 km/h
223 10-01-2009 00:00:00 -11.3175 C 1.53 g/m*3 -11.32 C 0 km/h
224 11-01-2009 00:00:00 -8.9975 C 1.92 g/m*3 -9 C 0 km/h
225 12-01-2009 00:00:00 -7.30417 C 2.15 g/m*3 -7.3 C 0 km/h
Sensor: Nr:Datum:Temp:Abs-Feuchte:Windchill:Wind:
Aussen-T/F 226 13-01-2009 00:00:00 -0.17833 C 3.29 g/m*3 -0.18 C 0 km/h
227 14-01-2009 00:00:00 -0.15917 C 4.05 g/m*3 -0.16 C 0 km/h
228 15-01-2009 00:00:00 0.77417 C 4.28 g/m*3 0.77 C 0 km/h
229 16-01-2009 00:00:00 0.69833 C 3.9 g/m*3 0.7 C 0 km/h
230 17-01-2009 00:00:00 2.97833 C 4.9 g/m*3 2.98 C 0 km/h
231 18-01-2009 00:00:00 4.50924 C 5.1 g/m*3 4.51 C 0 km/h
232 19-01-2009 00:00:00 5.4575 C 5.21 g/m*3 5.46 C 0 km/h
233 20-01-2009 00:00:00 3.6475 C 4.19 g/m*3 3.65 C 0 km/h
234 21-01-2009 00:00:00 0.32 C 4.11 g/m*3 0.32 C 0 km/h
235 22-01-2009 00:00:00 2.825 C 4.02 g/m*3 2.83 C 0 km/h
236 23-01-2009 00:00:00 4.345 C 5.29 g/m*3 4.35 C 0 km/h
237 24-01-2009 00:00:00 3.13 C 4.29 g/m*3 3.13 C 0 km/h
238 25-01-2009 00:00:00 0.15167 C 4.08 g/m*3 0.15 C 0 km/h
239 26-01-2009 00:00:00 -2.16917 C 3.69 g/m*3 -2.17 C 0 km/h
240 27-01-2009 00:00:00 -0.93167 C 3.93 g/m*3 -0.93 C 0 km/h
241 28-01-2009 00:00:00 0.50833 C 4.02 g/m*3 0.51 C 0 km/h
242 29-01-2009 00:00:00 1.15667 C 3.12 g/m*3 1.16 C 0 km/h
243 30-01-2009 00:00:00 -1.50917 C 3.06 g/m*3 -1.51 C 0 km/h
244 31-01-2009 00:00:00 0.06303 C 2.59 g/m*3 0.06 C 0 km/h
245 01-02-2009 00:00:00 -0.11167 C 2.24 g/m*3 -0.11 C 0 km/h
246 02-02-2009 00:00:00 1.085 C 2.84 g/m*3 1.09 C 0 km/h
247 03-02-2009 00:00:00 0.63833 C 3.81 g/m*3 0.64 C 0 km/h
248 04-02-2009 00:00:00 3.0025 C 4.61 g/m*3 3 C 0 km/h
249 05-02-2009 00:00:00 3.2325 C 4.69 g/m*3 3.23 C 0 km/h
250 06-02-2009 00:00:00 4.3 C 5.03 g/m*3 4.3 C 0 km/h
Sensor: Nr:Datum:Temp:Abs-Feuchte:Windchill:Wind:
Aussen-T/F 251 07-02-2009 00:00:00 4.03417 C 5.27 g/m*3 4.03 C 0 km/h
252 08-02-2009 00:00:00 2.6525 C 3.3 g/m*3 2.65 C 0 km/h
253 09-02-2009 00:00:00 2.3775 C 3.79 g/m*3 2.38 C 0 km/h
254 10-02-2009 00:00:00 4.155 C 5.17 g/m*3 4.16 C 0 km/h
255 11-02-2009 00:00:00 2.90333 C 3.62 g/m*3 2.9 C 0 km/h
256 12-02-2009 00:00:00 0.68908 C 3.9 g/m*3 0.69 C 0 km/h
257 13-02-2009 00:00:00 0.51333 C 4.05 g/m*3 0.51 C 0 km/h
258 14-02-2009 00:00:00 0.46083 C 3.41 g/m*3 0.46 C 0 km/h
259 15-02-2009 00:00:00 -1.63583 C 2.82 g/m*3 -1.64 C 0 km/h
260 16-02-2009 00:00:00 1.96417 C 4.68 g/m*3 1.96 C 0 km/h
261 17-02-2009 00:00:00 3.77167 C 5.13 g/m*3 3.77 C 0 km/h
262 18-02-2009 00:00:00 -1.62667 C 2.39 g/m*3 -1.63 C 0 km/h
263 19-02-2009 00:00:00 1.01417 C 2.7 g/m*3 1.01 C 0 km/h
264 20-02-2009 00:00:00 3.41917 C 5.01 g/m*3 3.42 C 0 km/h
265 21-02-2009 00:00:00 4.72083 C 4.87 g/m*3 4.72 C 0 km/h
266 22-02-2009 00:00:00 5.24667 C 5.76 g/m*3 5.25 C 0 km/h
267 23-02-2009 00:00:00 5.50083 C 4.72 g/m*3 5.5 C 0 km/h
268 24-02-2009 00:00:00 4.8325 C 4.1 g/m*3 4.83 C 0 km/h
269 25-02-2009 00:00:00 3.34286 C 4 g/m*3 3.34 C 0 km/h
270 26-02-2009 00:00:00 6.7377 C 4.3 g/m*3 6.74 C 0 km/h
271 27-02-2009 00:00:00 7.10417 C 5.5 g/m*3 7.1 C 0 km/h
272 28-02-2009 00:00:00 10.0375 C 5.89 g/m*3 10.04 C 0 km/h
273 01-03-2009 00:00:00 9.95 C 5.76 g/m*3 9.95 C 0 km/h
274 02-03-2009 00:00:00 7.98 C 5.85 g/m*3 7.98 C 0 km/h
275 03-03-2009 00:00:00 5.05583 C 3.94 g/m*3 5.06 C 0 km/h
Sensor: Nr:Datum:Temp:Abs-Feuchte:Windchill:Wind:
Aussen-T/F 276 04-03-2009 00:00:00 7.27917 C 3.96 g/m*3 7.28 C 0 km/h
277 05-03-2009 00:00:00 4.42917 C 5.35 g/m*3 4.43 C 0 km/h
278 06-03-2009 00:00:00 3.82417 C 5.35 g/m*3 3.82 C 0 km/h
279 07-03-2009 00:00:00 5.72167 C 3.85 g/m*3 5.72 C 0 km/h
280 08-03-2009 00:00:00 7.50833 C 5.49 g/m*3 7.51 C 0 km/h
281 09-03-2009 00:00:00 5.1521 C 4.17 g/m*3 5.15 C 0 km/h
282 10-03-2009 00:00:00 5.4275 C 4.82 g/m*3 5.43 C 0 km/h
283 11-03-2009 00:00:00 5.60417 C 4.35 g/m*3 5.6 C 0 km/h
284 12-03-2009 00:00:00 5.67083 C 5.13 g/m*3 5.67 C 0 km/h
285 13-03-2009 00:00:00 8.68167 C 5.63 g/m*3 8.68 C 0 km/h
286 14-03-2009 00:00:00 8.925 C 5.68 g/m*3 8.93 C 0 km/h
287 15-03-2009 00:00:00 9.41667 C 4.91 g/m*3 9.42 C 0 km/h
288 16-03-2009 00:00:00 8.23417 C 5.83 g/m*3 8.23 C 0 km/h
289 17-03-2009 00:00:00 7.73833 C 5.15 g/m*3 7.74 C 0 km/h
290 18-03-2009 00:00:00 5.82417 C 3.93 g/m*3 5.82 C 0 km/h
291 19-03-2009 00:00:00 5.41917 C 3.04 g/m*3 5.42 C 0 km/h
292 20-03-2009 00:00:00 4.59917 C 2.69 g/m*3 4.6 C 0 km/h
293 21-03-2009 00:00:00 5.07 C 2.81 g/m*3 5.07 C 0 km/h
294 22-03-2009 00:00:00 5.16639 C 3.79 g/m*3 5.17 C 0 km/h
295 23-03-2009 00:00:00 7.82917 C 4.91 g/m*3 7.83 C 0 km/h
296 24-03-2009 00:00:00 3.67333 C 4.24 g/m*3 3.67 C 0 km/h
297 25-03-2009 00:00:00 3.18417 C 4.69 g/m*3 3.18 C 0 km/h
298 26-03-2009 00:00:00 6.40083 C 5.48 g/m*3 6.4 C 0 km/h
299 27-03-2009 00:00:00 7.28333 C 5.31 g/m*3 7.28 C 0 km/h
300 28-03-2009 00:00:00 6.97583 C 5.39 g/m*3 6.98 C 0 km/h
Sensor: Nr:Datum:Temp:Abs-Feuchte:Windchill:Wind:
Aussen-T/F 301 29-03-2009 00:00:00 6.18435 C 4.96 g/m*3 6.18 C 0 km/h
302 30-03-2009 00:00:00 6.41833 C 4.78 g/m*3 6.42 C 0 km/h
303 31-03-2009 00:00:00 8.3325 C 4.49 g/m*3 8.33 C 0 km/h
304 01-04-2009 00:00:00 10.89833 C 4.57 g/m*3 10.9 C 0 km/h
305 02-04-2009 00:00:00 15.335 C 5.18 g/m*3 15.34 C 0 km/h
306 03-04-2009 00:00:00 15.87143 C 6.71 g/m*3 15.87 C 0 km/h
307 04-04-2009 00:00:00 16.68333 C 7.32 g/m*3 16.68 C 0 km/h
308 05-04-2009 00:00:00 14.9675 C 6.93 g/m*3 14.97 C 0 km/h
309 06-04-2009 00:00:00 14.72833 C 6.98 g/m*3 14.73 C 0 km/h
310 07-04-2009 00:00:00 14.57333 C 7.41 g/m*3 14.57 C 0 km/h
311 08-04-2009 00:00:00 14.20167 C 6.07 g/m*3 14.2 C 0 km/h
312 09-04-2009 00:00:00 16.28067 C 7.49 g/m*3 16.28 C 0 km/h
313 10-04-2009 00:00:00 18.55372 C 7.45 g/m*3 18.55 C 0 km/h
314 11-04-2009 00:00:00 17.3525 C 7.29 g/m*3 17.35 C 0 km/h
315 12-04-2009 00:00:00 16.79 C 8.39 g/m*3 16.79 C 0 km/h
316 13-04-2009 00:00:00 15.65167 C 9.22 g/m*3 15.65 C 0 km/h
317 14-04-2009 00:00:00 16.16167 C 8.27 g/m*3 16.16 C 0 km/h
318 15-04-2009 00:00:00 16.94202 C 7.01 g/m*3 16.94 C 0 km/h
319 16-04-2009 00:00:00 14.94583 C 6.79 g/m*3 14.95 C 0 km/h
320 17-04-2009 00:00:00 10.0825 C 8.69 g/m*3 10.08 C 0 km/h
321 18-04-2009 00:00:00 9.84 C 8.53 g/m*3 9.84 C 0 km/h
322 19-04-2009 00:00:00 14.95667 C 7.61 g/m*3 14.96 C 0 km/h
323 20-04-2009 00:00:00 15.16917 C 7.23 g/m*3 15.17 C 0 km/h
324 21-04-2009 00:00:00 15.74583 C 6.35 g/m*3 15.75 C 0 km/h
325 22-04-2009 00:00:00 13.68833 C 5.48 g/m*3 13.69 C 0 km/h
Sensor: Nr:Datum:Temp:Abs-Feuchte:Windchill:Wind:
Aussen-T/F 326 23-04-2009 00:00:00 11.645 C 5.16 g/m*3 11.65 C 0 km/h
327 24-04-2009 00:00:00 14.11333 C 5.96 g/m*3 14.11 C 0 km/h
328 25-04-2009 00:00:00 14.64833 C 7.16 g/m*3 14.65 C 0 km/h
329 26-04-2009 00:00:00 18.35 C 8.19 g/m*3 18.35 C 0 km/h
330 27-04-2009 00:00:00 14.89496 C 7.27 g/m*3 14.89 C 0 km/h
331 28-04-2009 00:00:00 11.07833 C 8.01 g/m*3 11.08 C 0 km/h
332 29-04-2009 00:00:00 11.9025 C 7.14 g/m*3 11.9 C 0 km/h
333 30-04-2009 00:00:00 12.85833 C 7.53 g/m*3 12.86 C 0 km/h
334 01-05-2009 00:00:00 16.25583 C 8.09 g/m*3 16.26 C 0 km/h
335 02-05-2009 00:00:00 17.60167 C 7.7 g/m*3 17.6 C 0 km/h
336 03-05-2009 00:00:00 14.58333 C 7.12 g/m*3 14.58 C 0 km/h
337 04-05-2009 00:00:00 11.88333 C 4.53 g/m*3 11.88 C 0 km/h
338 05-05-2009 00:00:00 10.50917 C 6.68 g/m*3 10.51 C 0 km/h
339 06-05-2009 00:00:00 13.85625 C 7.25 g/m*3 13.86 C 0 km/h
340 07-05-2009 00:00:00 16.47708 C 7.43 g/m*3 16.48 C 0 km/h
341 08-05-2009 00:00:00 16.58021 C 8.46 g/m*3 16.58 C 0 km/h
342 09-05-2009 00:00:00 14.3875 C 8.01 g/m*3 14.39 C 0 km/h
343 10-05-2009 00:00:00 17.72083 C 9.72 g/m*3 17.72 C 0 km/h
344 11-05-2009 00:00:00 13.57188 C 11.06 g/m*3 13.57 C 0 km/h
345 12-05-2009 00:00:00 11.83333 C 9.17 g/m*3 11.83 C 0 km/h
346 13-05-2009 00:00:00 15.51771 C 8.96 g/m*3 15.52 C 0 km/h
347 14-05-2009 00:00:00 16.00104 C 9.44 g/m*3 16 C 0 km/h
348 15-05-2009 00:00:00 15.12255 C 10.34 g/m*3 15.12 C 0 km/h
349 16-05-2009 00:00:00 13.80333 C 7.38 g/m*3 13.8 C 0 km/h
350 17-05-2009 00:00:00 17.02083 C 7.92 g/m*3 17.02 C 0 km/h
Sensor: Nr:Datum:Temp:Abs-Feuchte:Windchill:Wind:
Aussen-T/F 351 18-05-2009 00:00:00 16.95083 C 6.63 g/m*3 16.95 C 0 km/h
352 19-05-2009 00:00:00 16.49333 C 7.85 g/m*3 16.49 C 0 km/h
353 20-05-2009 00:00:00 18.70167 C 9.55 g/m*3 18.7 C 0 km/h
354 21-05-2009 00:00:00 19.21167 C 10.72 g/m*3 19.21 C 0 km/h
355 22-05-2009 00:00:00 17.97917 C 7.45 g/m*3 17.98 C 0 km/h
356 23-05-2009 00:00:00 18.72083 C 7.4 g/m*3 18.72 C 0 km/h
357 24-05-2009 00:00:00 22.53417 C 9.1 g/m*3 22.53 C 0 km/h
358 25-05-2009 00:00:00 23.49833 C 10.6 g/m*3 23.5 C 0 km/h
359 26-05-2009 00:00:00 19.86583 C 9.97 g/m*3 19.87 C 0 km/h
360 27-05-2009 00:00:00 14.4425 C 6.18 g/m*3 14.44 C 0 km/h
361 28-05-2009 00:00:00 15.5325 C 8.21 g/m*3 15.53 C 0 km/h
362 29-05-2009 00:00:00 17.81765 C 6.76 g/m*3 17.82 C 0 km/h
363 30-05-2009 00:00:00 18.43417 C 6.45 g/m*3 18.43 C 0 km/h
364 31-05-2009 00:00:00 20.3075 C 7.55 g/m*3 20.31 C 0 km/h
365 01-06-2009 00:00:00 19.42541 C 9.1 g/m*3 19.43 C 0 km/h

Maximal/Minimal-Werte vom 02.06.2008 - 01.06.2009

Sensor Min Max Avg
Temp
(Aussen-T/F)
-16.1 °C
07-01-2009  08:49:12
35.3 °C
02-07-2008  17:58:02
11.02 °C
Abs-Feuchte
(Aussen-T/F)
1.26 g/m*3
06-01-2009  00:00:00
13.92 g/m*3
27-07-2008  00:00:00
6.96 g/m*3
Windchill
(Aussen-T/F)
-11.32 C
10-01-2009  00:00:00
26.48 C
02-07-2008  00:00:00
11.04 C

Die Daten stammen von einer Davis Vantage Pro 2 Wetter-Station und werden unter Linux mit der Software wview2wettercgi und aufbereitet. Alle Angaben erfolgen ohne Gewähr für ihre Vollständigkeit oder Richtigkeit.
Kontakt: Rainer Krienke krienke@uni-koblenz.de . Meine Webseiten an der Uni Koblenz oder privat.
Version: $Revision: 0.78 $